Time;durP1;ratioP1;P1;durP2;ratioP2;P2;SDS_P1;SDS_P2;PMS_P1;PMS_P2;Temp;Humidity;BMP_temperature;BMP_pressure;BME280_temperature;BME280_humidity;BME280_pressure;Samples;Min_cycle;Max_cycle;Signal;HPM_P1;HPM_P2
2022/03/31 00:01:05;;;;;;;0.90;0.90;;;;;;;;;;5064542;28;20363;-65
2022/03/31 00:03:40;;;;;;;1.33;1.23;;;;;;;;;;5073120;28;20197;-65
2022/03/31 00:06:08;;;;;;;1.30;1.20;;;;;;;;;;5054993;28;20541;-65
2022/03/31 00:08:40;;;;;;;1.27;1.17;;;;;;;;;;5065623;28;20194;-64
2022/03/31 00:11:08;;;;;;;1.73;1.37;;;;;;;;;;5061996;28;20213;-64
2022/03/31 00:13:41;;;;;;;1.20;1.10;;;;;;;;;;5038150;28;20298;-65
2022/03/31 00:16:11;;;;;;;1.30;1.20;;;;;;;;;;5065384;28;20194;-65
2022/03/31 00:18:41;;;;;;;1.20;1.10;;;;;;;;;;5066521;28;20279;-65
2022/03/31 00:33:35;;;;;;;1.27;1.17;;;;;;;;;;5068207;28;20277;-66
2022/03/31 00:36:02;;;;;;;1.50;1.40;;;;;;;;;;5044803;28;20284;-65
2022/03/31 00:38:29;;;;;;;1.50;1.40;;;;;;;;;;5067866;28;20205;-64
2022/03/31 00:40:57;;;;;;;1.20;1.07;;;;;;;;;;5069454;28;20205;-65
2022/03/31 00:43:24;;;;;;;1.20;1.03;;;;;;;;;;5077462;28;20688;-64
2022/03/31 00:45:56;;;;;;;1.10;1.10;;;;;;;;;;5067605;28;20202;-65
2022/03/31 00:48:24;;;;;;;1.20;1.10;;;;;;;;;;5075270;28;20183;-65
2022/03/31 00:50:52;;;;;;;1.40;1.30;;;;;;;;;;5069627;28;20198;-64
2022/03/31 00:53:19;;;;;;;1.30;1.20;;;;;;;;;;5066288;28;20671;-65
2022/03/31 00:55:56;;;;;;;1.53;1.43;;;;;;;;;;5070079;28;20258;-65
2022/03/31 00:58:23;;;;;;;1.03;1.03;;;;;;;;;;5067651;28;20264;-64
2022/03/31 01:00:50;;;;;;;1.67;1.40;;;;;;;;;;5068864;28;20248;-64
2022/03/31 01:03:17;;;;;;;1.37;1.20;;;;;;;;;;5066926;28;20205;-66
2022/03/31 01:05:45;;;;;;;1.40;1.13;;;;;;;;;;5066590;28;20186;-65
2022/03/31 01:08:12;;;;;;;1.30;1.20;;;;;;;;;;5069246;28;20209;-65
2022/03/31 01:10:40;;;;;;;1.50;1.40;;;;;;;;;;5067522;28;20704;-64
2022/03/31 01:13:07;;;;;;;1.40;1.30;;;;;;;;;;5066575;28;20222;-64
2022/03/31 01:15:35;;;;;;;1.20;1.10;;;;;;;;;;5069208;28;20380;-65
2022/03/31 01:18:03;;;;;;;1.40;1.30;;;;;;;;;;5071454;28;20746;-66
2022/03/31 01:20:33;;;;;;;1.40;1.30;;;;;;;;;;5069226;28;20208;-66
2022/03/31 01:23:01;;;;;;;1.43;1.30;;;;;;;;;;5078883;28;20642;-64
2022/03/31 01:25:28;;;;;;;1.40;1.30;;;;;;;;;;5068828;28;20189;-65
2022/03/31 01:27:56;;;;;;;1.40;1.30;;;;;;;;;;5068157;28;20210;-64
2022/03/31 01:30:23;;;;;;;1.80;1.20;;;;;;;;;;5069220;28;20616;-65
2022/03/31 01:32:51;;;;;;;1.80;1.33;;;;;;;;;;5069979;28;20267;-66
2022/03/31 01:35:18;;;;;;;1.60;1.50;;;;;;;;;;5063565;28;20304;-64
2022/03/31 01:37:46;;;;;;;1.53;1.43;;;;;;;;;;5068930;28;20275;-64
2022/03/31 01:40:13;;;;;;;1.60;1.50;;;;;;;;;;5068683;28;20209;-65
2022/03/31 01:42:42;;;;;;;1.60;1.37;;;;;;;;;;5073310;28;20591;-65
2022/03/31 01:45:11;;;;;;;1.30;1.20;;;;;;;;;;5053296;28;20189;-65
2022/03/31 01:47:39;;;;;;;1.53;1.43;;;;;;;;;;5050029;28;20201;-66
2022/03/31 01:50:09;;;;;;;1.40;1.30;;;;;;;;;;5067667;28;20244;-66
2022/03/31 01:52:37;;;;;;;1.67;1.57;;;;;;;;;;5056999;28;20232;-66
2022/03/31 01:55:05;;;;;;;1.60;1.43;;;;;;;;;;5066217;28;20265;-64
2022/03/31 01:57:32;;;;;;;1.70;1.60;;;;;;;;;;5069259;28;20214;-65
2022/03/31 02:00:03;;;;;;;1.87;1.77;;;;;;;;;;5066569;28;20628;-65
2022/03/31 02:02:30;;;;;;;1.70;1.60;;;;;;;;;;5068188;28;20973;-65
2022/03/31 02:04:57;;;;;;;1.80;1.70;;;;;;;;;;5068798;28;20271;-64
2022/03/31 02:07:25;;;;;;;2.00;1.60;;;;;;;;;;5065707;28;20251;-65
2022/03/31 02:09:52;;;;;;;1.40;1.30;;;;;;;;;;5066206;28;20362;-65
2022/03/31 02:12:19;;;;;;;1.70;1.60;;;;;;;;;;5068560;28;20579;-66
2022/03/31 02:14:46;;;;;;;2.13;1.93;;;;;;;;;;5067738;28;20205;-67
2022/03/31 02:17:13;;;;;;;2.07;1.80;;;;;;;;;;5065058;28;20206;-64
2022/03/31 02:19:41;;;;;;;1.83;1.70;;;;;;;;;;5078422;28;20239;-65
2022/03/31 02:22:08;;;;;;;1.63;1.53;;;;;;;;;;5065697;28;20268;-65
2022/03/31 02:24:35;;;;;;;1.97;1.77;;;;;;;;;;5072739;28;20197;-64
2022/03/31 02:27:03;;;;;;;2.00;1.80;;;;;;;;;;5068121;28;20201;-64
2022/03/31 02:29:30;;;;;;;2.40;2.20;;;;;;;;;;5068099;28;20198;-65
2022/03/31 02:31:57;;;;;;;2.13;1.93;;;;;;;;;;5068389;28;20194;-65
2022/03/31 02:34:25;;;;;;;2.30;2.07;;;;;;;;;;5065535;28;20582;-65
2022/03/31 02:36:52;;;;;;;2.30;2.10;;;;;;;;;;5040207;28;20666;-65
2022/03/31 02:39:22;;;;;;;2.40;2.20;;;;;;;;;;5068364;28;20202;-64
2022/03/31 02:41:54;;;;;;;2.33;2.13;;;;;;;;;;5063828;28;20287;-65
2022/03/31 02:44:24;;;;;;;2.40;2.10;;;;;;;;;;5066478;28;20672;-65
2022/03/31 02:46:53;;;;;;;2.40;2.20;;;;;;;;;;5065272;28;20229;-65
2022/03/31 02:49:21;;;;;;;2.43;2.23;;;;;;;;;;5064194;28;20682;-65
2022/03/31 02:51:49;;;;;;;3.00;2.70;;;;;;;;;;5067605;28;20197;-65
2022/03/31 02:57:09;;;;;;;2.50;2.30;;;;;;;;;;5066293;28;20205;-65
2022/03/31 02:59:38;;;;;;;2.47;2.27;;;;;;;;;;5081559;28;20205;-65
2022/03/31 03:02:10;;;;;;;2.57;2.20;;;;;;;;;;5069537;28;20194;-65
2022/03/31 03:04:44;;;;;;;2.70;2.50;;;;;;;;;;5074133;28;20251;-66
2022/03/31 03:07:16;;;;;;;3.30;2.87;;;;;;;;;;5069272;28;20201;-65
2022/03/31 03:09:46;;;;;;;2.90;2.60;;;;;;;;;;5072392;28;20205;-65
2022/03/31 03:12:15;;;;;;;3.17;2.80;;;;;;;;;;5072683;28;20202;-66
2022/03/31 03:14:49;;;;;;;3.23;2.93;;;;;;;;;;5073684;28;20205;-65
2022/03/31 03:17:23;;;;;;;3.30;3.00;;;;;;;;;;5067420;28;20224;-64
2022/03/31 03:19:54;;;;;;;3.70;3.40;;;;;;;;;;5069427;28;20268;-65
2022/03/31 03:22:26;;;;;;;3.93;3.40;;;;;;;;;;5066557;28;20209;-65
2022/03/31 03:24:54;;;;;;;3.80;3.50;;;;;;;;;;5068309;28;20201;-65
2022/03/31 03:27:21;;;;;;;3.43;3.13;;;;;;;;;;5064867;28;20194;-64
2022/03/31 03:29:52;;;;;;;3.70;3.40;;;;;;;;;;5066674;28;20614;-64
2022/03/31 03:32:19;;;;;;;3.73;3.37;;;;;;;;;;5067374;28;20210;-64
2022/03/31 03:34:46;;;;;;;3.57;3.27;;;;;;;;;;5064743;28;20221;-66
2022/03/31 03:37:13;;;;;;;3.33;3.03;;;;;;;;;;5064157;28;20198;-65
2022/03/31 03:39:40;;;;;;;3.83;3.53;;;;;;;;;;5067767;28;20181;-65
2022/03/31 03:42:08;;;;;;;3.77;3.47;;;;;;;;;;5067293;28;20246;-65
2022/03/31 03:44:35;;;;;;;3.50;3.20;;;;;;;;;;5067439;28;20201;-65
2022/03/31 03:47:02;;;;;;;3.90;3.60;;;;;;;;;;5064571;28;20279;-64
2022/03/31 03:49:29;;;;;;;3.70;3.40;;;;;;;;;;5054805;28;20197;-64
2022/03/31 03:51:57;;;;;;;3.53;3.23;;;;;;;;;;5067576;28;20212;-64
2022/03/31 03:54:27;;;;;;;3.53;3.23;;;;;;;;;;5066683;28;20264;-65
2022/03/31 03:56:54;;;;;;;3.83;3.53;;;;;;;;;;5067563;28;20193;-64
2022/03/31 03:59:21;;;;;;;3.70;3.40;;;;;;;;;;5062468;28;20259;-64
2022/03/31 04:01:48;;;;;;;3.67;3.30;;;;;;;;;;5067441;28;20189;-64
2022/03/31 04:04:15;;;;;;;3.10;2.80;;;;;;;;;;5066819;28;20282;-64
2022/03/31 04:06:48;;;;;;;3.33;3.03;;;;;;;;;;5065841;28;20565;-65
2022/03/31 04:09:21;;;;;;;3.40;3.10;;;;;;;;;;5065133;28;20633;-64
2022/03/31 04:11:52;;;;;;;3.40;3.10;;;;;;;;;;5067392;28;20201;-64
2022/03/31 04:14:22;;;;;;;2.70;2.50;;;;;;;;;;5067163;28;20237;-65
2022/03/31 04:16:49;;;;;;;2.80;2.60;;;;;;;;;;5049142;28;20259;-64
2022/03/31 04:19:16;;;;;;;3.70;3.00;;;;;;;;;;5063806;28;20455;-64
2022/03/31 04:21:44;;;;;;;3.10;2.80;;;;;;;;;;5064652;28;20271;-64
2022/03/31 04:24:11;;;;;;;3.13;2.93;;;;;;;;;;5067088;28;20856;-64
2022/03/31 04:26:38;;;;;;;3.17;2.73;;;;;;;;;;5053216;28;20229;-66
2022/03/31 04:29:08;;;;;;;2.70;2.50;;;;;;;;;;5046122;28;20256;-64
2022/03/31 04:31:41;;;;;;;3.27;3.07;;;;;;;;;;5066375;28;20201;-64
2022/03/31 04:34:09;;;;;;;2.70;2.50;;;;;;;;;;5064050;28;20230;-64
2022/03/31 04:36:38;;;;;;;2.90;2.70;;;;;;;;;;5052680;28;20214;-65
2022/03/31 04:39:06;;;;;;;3.17;2.80;;;;;;;;;;5061020;28;20623;-64
2022/03/31 04:41:33;;;;;;;2.70;2.50;;;;;;;;;;5086347;28;20190;-65
2022/03/31 04:44:00;;;;;;;2.70;2.27;;;;;;;;;;5069206;28;20194;-64
2022/03/31 04:46:27;;;;;;;2.60;2.40;;;;;;;;;;5064385;28;20732;-64
2022/03/31 04:48:54;;;;;;;2.50;2.30;;;;;;;;;;5064084;28;20626;-65
2022/03/31 04:51:22;;;;;;;2.90;2.70;;;;;;;;;;5068472;28;20691;-64
2022/03/31 04:53:49;;;;;;;2.50;2.30;;;;;;;;;;5066513;28;20267;-66
2022/03/31 04:56:16;;;;;;;2.80;2.60;;;;;;;;;;5066363;28;20193;-64
2022/03/31 04:58:44;;;;;;;3.00;2.80;;;;;;;;;;5058165;28;20651;-65
2022/03/31 05:01:11;;;;;;;2.73;2.53;;;;;;;;;;5065456;28;20619;-64
2022/03/31 05:03:39;;;;;;;2.90;2.70;;;;;;;;;;5064346;28;20197;-64
2022/03/31 05:06:08;;;;;;;2.70;2.50;;;;;;;;;;5072625;28;20209;-67
2022/03/31 05:08:40;;;;;;;2.33;2.13;;;;;;;;;;5052939;28;20217;-66
2022/03/31 05:11:09;;;;;;;3.73;3.43;;;;;;;;;;5065000;28;20209;-65
2022/03/31 05:13:38;;;;;;;6.10;3.30;;;;;;;;;;5048585;28;20221;-66
2022/03/31 05:16:06;;;;;;;5.30;3.00;;;;;;;;;;5070898;28;20213;-65
2022/03/31 05:18:37;;;;;;;8.40;3.80;;;;;;;;;;5053686;28;20251;-64
2022/03/31 05:21:08;;;;;;;9.53;4.13;;;;;;;;;;5074596;28;20213;-65
2022/03/31 05:23:40;;;;;;;5.90;3.40;;;;;;;;;;5064387;28;20202;-66
2022/03/31 05:26:09;;;;;;;6.83;4.07;;;;;;;;;;5076696;28;20201;-64
2022/03/31 05:28:38;;;;;;;8.23;3.80;;;;;;;;;;5051319;28;20251;-64
2022/03/31 05:31:09;;;;;;;7.70;3.83;;;;;;;;;;5076378;28;20261;-64
2022/03/31 05:33:40;;;;;;;9.10;3.80;;;;;;;;;;5067332;28;20339;-64
2022/03/31 05:36:09;;;;;;;7.90;3.53;;;;;;;;;;5072000;28;20193;-66
2022/03/31 05:38:38;;;;;;;4.80;3.63;;;;;;;;;;5069269;28;20197;-66
2022/03/31 05:41:09;;;;;;;6.33;3.90;;;;;;;;;;5080761;28;21286;-65
2022/03/31 05:43:40;;;;;;;4.47;3.50;;;;;;;;;;5068871;28;20259;-65
2022/03/31 05:46:09;;;;;;;7.43;4.10;;;;;;;;;;5067073;28;20197;-65
2022/03/31 05:48:37;;;;;;;5.93;4.00;;;;;;;;;;5069514;28;20198;-65
2022/03/31 05:51:04;;;;;;;7.23;4.30;;;;;;;;;;5087315;28;20207;-65
2022/03/31 05:53:34;;;;;;;6.70;4.07;;;;;;;;;;5069324;28;20604;-65
2022/03/31 05:56:08;;;;;;;8.27;3.40;;;;;;;;;;5077536;28;20532;-65
2022/03/31 05:58:39;;;;;;;6.10;3.93;;;;;;;;;;5066450;28;20627;-67
2022/03/31 06:01:11;;;;;;;5.33;3.77;;;;;;;;;;5051195;28;20704;-67
2022/03/31 06:03:46;;;;;;;5.40;3.70;;;;;;;;;;5074176;28;20193;-66
2022/03/31 06:06:17;;;;;;;5.60;4.27;;;;;;;;;;5077094;28;20194;-65
2022/03/31 06:08:47;;;;;;;6.40;3.50;;;;;;;;;;5067141;28;20219;-66
2022/03/31 06:11:16;;;;;;;4.20;2.90;;;;;;;;;;5074057;28;20269;-65
2022/03/31 06:13:47;;;;;;;5.13;3.00;;;;;;;;;;5053067;28;20722;-66
2022/03/31 06:16:18;;;;;;;4.67;3.00;;;;;;;;;;5076337;28;20280;-65
2022/03/31 06:18:49;;;;;;;4.63;3.00;;;;;;;;;;5065948;28;20204;-64
2022/03/31 06:21:21;;;;;;;5.67;2.90;;;;;;;;;;5061851;28;20189;-65
2022/03/31 06:23:51;;;;;;;5.27;3.00;;;;;;;;;;5068706;28;20201;-65
2022/03/31 06:26:21;;;;;;;3.93;3.00;;;;;;;;;;5070586;28;20222;-64
2022/03/31 06:28:48;;;;;;;5.40;2.50;;;;;;;;;;5068055;28;20190;-65
2022/03/31 06:31:15;;;;;;;3.23;2.57;;;;;;;;;;5054512;28;20518;-66
2022/03/31 06:33:42;;;;;;;14.50;4.82;;;;;;;;;;5073831;28;20439;-66
2022/03/31 06:36:09;;;;;;;102.90;20.13;;;;;;;;;;5078536;28;20727;-67
2022/03/31 06:38:37;;;;;;;129.70;24.23;;;;;;;;;;5081689;28;20239;-66
2022/03/31 06:41:07;;;;;;;102.40;21.67;;;;;;;;;;5057464;28;20248;-68
2022/03/31 06:43:34;;;;;;;80.53;18.37;;;;;;;;;;5075245;28;20186;-66
2022/03/31 06:46:02;;;;;;;77.80;16.50;;;;;;;;;;5075387;28;20589;-69
2022/03/31 06:48:32;;;;;;;60.43;14.83;;;;;;;;;;5075716;28;20217;-65
2022/03/31 06:51:00;;;;;;;46.10;12.07;;;;;;;;;;5076175;28;20735;-67
2022/03/31 06:53:31;;;;;;;43.80;12.27;;;;;;;;;;5073087;28;20682;-67
2022/03/31 06:56:00;;;;;;;39.60;10.53;;;;;;;;;;5072977;28;20881;-69
2022/03/31 06:58:40;;;;;;;26.27;9.13;;;;;;;;;;5075463;28;20205;-70
2022/03/31 07:01:12;;;;;;;31.37;8.30;;;;;;;;;;5074377;28;20201;-68
2022/03/31 07:03:44;;;;;;;20.97;7.47;;;;;;;;;;5061699;28;20225;-70
2022/03/31 07:06:16;;;;;;;21.90;7.53;;;;;;;;;;5076190;28;20213;-68
2022/03/31 07:08:48;;;;;;;24.00;7.13;;;;;;;;;;5045559;28;21396;-69
2022/03/31 07:11:18;;;;;;;18.67;5.90;;;;;;;;;;5071968;28;20587;-68
2022/03/31 07:13:52;;;;;;;15.83;5.17;;;;;;;;;;5080330;28;20228;-66
2022/03/31 07:16:22;;;;;;;12.63;5.30;;;;;;;;;;5078557;28;20197;-67
2022/03/31 07:18:53;;;;;;;12.33;4.50;;;;;;;;;;5070938;28;20193;-69
2022/03/31 07:21:23;;;;;;;15.00;4.87;;;;;;;;;;5072517;28;20212;-68
2022/03/31 07:23:55;;;;;;;14.97;4.53;;;;;;;;;;5076181;28;20283;-68
2022/03/31 07:26:25;;;;;;;9.03;3.63;;;;;;;;;;5071210;28;20185;-69
2022/03/31 07:28:55;;;;;;;10.63;3.60;;;;;;;;;;5071976;28;20197;-66
2022/03/31 07:31:29;;;;;;;11.50;3.20;;;;;;;;;;5073728;28;20213;-66
2022/03/31 07:33:57;;;;;;;9.63;3.77;;;;;;;;;;5059089;28;20244;-66
2022/03/31 07:36:30;;;;;;;9.27;2.93;;;;;;;;;;5070961;28;20252;-66
2022/03/31 07:39:01;;;;;;;9.27;3.30;;;;;;;;;;5061449;28;20380;-67
2022/03/31 07:41:30;;;;;;;7.17;2.60;;;;;;;;;;5057200;28;20202;-66
2022/03/31 07:44:00;;;;;;;7.77;2.70;;;;;;;;;;5079804;28;20232;-67
2022/03/31 07:46:32;;;;;;;9.73;2.87;;;;;;;;;;5074983;28;20204;-66
2022/03/31 07:49:04;;;;;;;8.30;3.07;;;;;;;;;;5060874;28;20625;-67
2022/03/31 07:51:33;;;;;;;8.37;2.47;;;;;;;;;;5059171;28;20306;-67
2022/03/31 07:54:02;;;;;;;6.70;2.67;;;;;;;;;;5057882;28;20241;-66
2022/03/31 07:56:29;;;;;;;8.17;2.70;;;;;;;;;;5078273;28;20254;-66
2022/03/31 07:58:56;;;;;;;7.73;2.60;;;;;;;;;;5073739;28;20201;-66
2022/03/31 08:01:24;;;;;;;7.47;2.53;;;;;;;;;;5072384;28;20185;-66
2022/03/31 08:03:53;;;;;;;4.97;2.30;;;;;;;;;;5067534;28;20224;-67
2022/03/31 08:06:21;;;;;;;4.90;2.10;;;;;;;;;;5077830;28;20197;-69
2022/03/31 08:08:48;;;;;;;5.40;2.03;;;;;;;;;;5078024;28;20194;-67
2022/03/31 08:11:15;;;;;;;4.33;2.00;;;;;;;;;;5073661;28;20622;-67
2022/03/31 08:13:42;;;;;;;4.27;2.20;;;;;;;;;;5077280;28;20185;-68
2022/03/31 08:16:12;;;;;;;4.33;2.03;;;;;;;;;;5056484;28;20202;-67
2022/03/31 08:18:45;;;;;;;5.83;2.27;;;;;;;;;;5076328;28;20205;-69
2022/03/31 08:21:15;;;;;;;4.13;2.17;;;;;;;;;;5066847;28;21181;-72
2022/03/31 08:23:48;;;;;;;3.47;2.10;;;;;;;;;;5069806;28;20197;-67
2022/03/31 08:26:19;;;;;;;3.60;2.00;;;;;;;;;;5073370;28;20287;-68
2022/03/31 08:28:51;;;;;;;6.37;1.80;;;;;;;;;;5055579;28;20205;-67
2022/03/31 08:31:21;;;;;;;2.80;1.57;;;;;;;;;;5052426;28;20197;-70
2022/03/31 08:33:48;;;;;;;3.97;1.93;;;;;;;;;;5070818;28;20209;-68
2022/03/31 08:36:15;;;;;;;4.57;1.70;;;;;;;;;;5065190;28;20252;-69
2022/03/31 08:38:43;;;;;;;3.80;2.10;;;;;;;;;;5072719;28;20262;-69
2022/03/31 08:41:11;;;;;;;6.17;1.90;;;;;;;;;;5074460;28;20250;-68
2022/03/31 08:43:41;;;;;;;3.60;1.80;;;;;;;;;;5079461;28;20185;-68
2022/03/31 08:46:09;;;;;;;3.43;2.17;;;;;;;;;;5058533;28;20209;-66
2022/03/31 08:48:37;;;;;;;3.07;1.70;;;;;;;;;;5063189;28;20201;-67
2022/03/31 08:51:05;;;;;;;3.87;1.83;;;;;;;;;;5079851;28;20509;-67
2022/03/31 08:53:32;;;;;;;4.53;1.60;;;;;;;;;;5078039;28;20197;-68
2022/03/31 08:55:59;;;;;;;3.50;1.83;;;;;;;;;;5078322;28;20229;-71
2022/03/31 08:58:27;;;;;;;3.90;1.67;;;;;;;;;;5078090;28;20735;-67
2022/03/31 09:00:55;;;;;;;4.03;1.80;;;;;;;;;;5080224;28;20194;-67
2022/03/31 09:03:40;;;;;;;5.60;2.10;;;;;;;;;;5059302;28;20546;-66
2022/03/31 09:06:10;;;;;;;3.70;1.83;;;;;;;;;;5062735;28;20213;-66
2022/03/31 09:08:40;;;;;;;4.97;2.10;;;;;;;;;;5080290;28;20213;-66
2022/03/31 09:11:09;;;;;;;5.30;1.70;;;;;;;;;;5074551;28;20213;-69
2022/03/31 09:13:40;;;;;;;3.80;1.50;;;;;;;;;;5080722;28;20706;-68
2022/03/31 09:16:13;;;;;;;5.70;2.10;;;;;;;;;;5080196;28;20213;-68
2022/03/31 09:18:43;;;;;;;7.43;2.17;;;;;;;;;;5083198;28;20610;-68
2022/03/31 09:21:15;;;;;;;4.67;1.87;;;;;;;;;;5059347;28;20204;-69
2022/03/31 09:23:47;;;;;;;2.63;1.93;;;;;;;;;;5082772;28;20204;-68
2022/03/31 09:26:16;;;;;;;5.80;1.63;;;;;;;;;;5079311;28;20206;-69
2022/03/31 09:28:49;;;;;;;4.47;1.83;;;;;;;;;;5081528;28;20197;-71
2022/03/31 09:31:25;;;;;;;2.67;1.70;;;;;;;;;;5061174;28;20716;-71
2022/03/31 09:33:59;;;;;;;3.93;1.83;;;;;;;;;;5056230;28;20216;-70
2022/03/31 09:36:30;;;;;;;4.47;1.57;;;;;;;;;;5064129;28;20196;-69
2022/03/31 09:39:07;;;;;;;4.00;1.83;;;;;;;;;;5079414;28;20206;-72
2022/03/31 09:41:43;;;;;;;7.37;1.77;;;;;;;;;;5078166;28;20887;-67
2022/03/31 09:44:25;;;;;;;3.00;1.67;;;;;;;;;;5074927;28;20201;-69
2022/03/31 09:47:07;;;;;;;3.73;1.47;;;;;;;;;;5072558;28;20205;-70
2022/03/31 09:49:36;;;;;;;4.33;1.33;;;;;;;;;;5063213;28;20194;-69
2022/03/31 09:52:06;;;;;;;2.93;1.70;;;;;;;;;;5077163;28;20222;-71
2022/03/31 09:54:33;;;;;;;4.30;1.70;;;;;;;;;;5065750;28;20292;-69
2022/03/31 09:57:02;;;;;;;5.03;1.80;;;;;;;;;;5073807;28;20193;-69
2022/03/31 09:59:31;;;;;;;2.07;1.67;;;;;;;;;;5054445;28;20207;-69
2022/03/31 10:01:58;;;;;;;1.60;1.10;;;;;;;;;;5075236;28;20204;-68
2022/03/31 10:04:26;;;;;;;2.30;1.10;;;;;;;;;;5075643;28;20253;-69
2022/03/31 10:06:55;;;;;;;5.27;1.50;;;;;;;;;;5078340;28;20197;-69
2022/03/31 10:09:22;;;;;;;4.17;1.50;;;;;;;;;;5069927;28;20202;-67
2022/03/31 10:12:08;;;;;;;4.77;1.73;;;;;;;;;;5079664;28;20615;-68
2022/03/31 10:14:54;;;;;;;3.97;1.53;;;;;;;;;;5071171;28;20232;-68
2022/03/31 10:17:26;;;;;;;4.20;1.70;;;;;;;;;;5076145;28;20926;-67
2022/03/31 10:19:53;;;;;;;3.00;1.50;;;;;;;;;;5076188;28;20575;-69
2022/03/31 10:25:13;;;;;;;3.17;1.27;;;;;;;;;;5022145;28;20204;-66
2022/03/31 10:27:48;;;;;;;4.10;1.43;;;;;;;;;;5076529;28;20322;-68
2022/03/31 10:30:16;;;;;;;2.93;1.10;;;;;;;;;;5079957;28;20197;-67
2022/03/31 10:33:15;;;;;;;10.33;2.10;;;;;;;;;;5077577;28;20206;-71
2022/03/31 10:35:42;;;;;;;3.23;1.20;;;;;;;;;;5033562;28;20241;-68
2022/03/31 10:38:16;;;;;;;2.60;1.50;;;;;;;;;;5074422;28;20190;-70
2022/03/31 10:40:44;;;;;;;2.70;1.33;;;;;;;;;;5077201;28;20261;-68
2022/03/31 10:43:22;;;;;;;4.83;1.30;;;;;;;;;;5059467;28;20212;-69
2022/03/31 10:45:49;;;;;;;2.83;1.33;;;;;;;;;;5074930;28;20209;-68
2022/03/31 10:48:16;;;;;;;5.33;1.00;;;;;;;;;;5070704;28;20258;-68
2022/03/31 10:50:43;;;;;;;1.23;1.00;;;;;;;;;;5077275;28;20208;-67
2022/03/31 10:53:11;;;;;;;1.03;0.93;;;;;;;;;;5075753;28;20235;-68
2022/03/31 10:55:40;;;;;;;1.73;1.20;;;;;;;;;;5077588;28;20264;-68
2022/03/31 10:58:19;;;;;;;1.73;1.10;;;;;;;;;;5074188;28;20208;-68
2022/03/31 11:00:48;;;;;;;1.17;1.00;;;;;;;;;;5077655;28;20223;-67
2022/03/31 11:03:19;;;;;;;3.73;1.00;;;;;;;;;;5069166;28;20232;-67
2022/03/31 11:05:47;;;;;;;2.20;1.10;;;;;;;;;;5046031;28;20216;-67
2022/03/31 11:08:18;;;;;;;2.77;1.23;;;;;;;;;;5073763;28;20251;-68
2022/03/31 11:10:46;;;;;;;1.17;1.00;;;;;;;;;;5075858;28;20213;-68
2022/03/31 11:13:15;;;;;;;2.13;1.10;;;;;;;;;;5077234;28;20189;-68
2022/03/31 11:15:44;;;;;;;1.10;0.90;;;;;;;;;;5074607;28;20210;-68
2022/03/31 11:18:12;;;;;;;1.63;0.87;;;;;;;;;;5076199;28;20200;-69
2022/03/31 11:20:39;;;;;;;2.53;1.10;;;;;;;;;;5078412;28;20186;-67
2022/03/31 11:23:06;;;;;;;0.83;0.70;;;;;;;;;;5075809;28;20225;-70
2022/03/31 11:25:34;;;;;;;1.10;0.70;;;;;;;;;;5072272;28;20254;-69
2022/03/31 11:28:09;;;;;;;1.50;0.80;;;;;;;;;;5055539;28;20213;-68
2022/03/31 11:30:37;;;;;;;1.10;0.80;;;;;;;;;;5075381;28;20617;-67
2022/03/31 11:33:05;;;;;;;1.07;0.90;;;;;;;;;;5077829;28;20197;-67
2022/03/31 11:35:32;;;;;;;0.70;0.70;;;;;;;;;;5055950;28;20586;-68
2022/03/31 11:38:01;;;;;;;1.30;0.90;;;;;;;;;;5075568;28;20225;-68
2022/03/31 11:40:30;;;;;;;1.37;0.97;;;;;;;;;;5049523;28;20217;-68
2022/03/31 11:42:58;;;;;;;1.67;1.00;;;;;;;;;;5075381;28;21436;-67
2022/03/31 11:45:29;;;;;;;0.80;0.80;;;;;;;;;;5071929;28;20680;-68
2022/03/31 11:48:01;;;;;;;0.83;0.83;;;;;;;;;;5080637;28;20205;-68
2022/03/31 11:50:29;;;;;;;15.07;2.43;;;;;;;;;;5076257;28;20282;-66
2022/03/31 11:53:24;;;;;;;3.93;1.00;;;;;;;;;;5074463;28;20735;-66
2022/03/31 11:56:02;;;;;;;0.93;0.83;;;;;;;;;;5077890;28;20723;-66
2022/03/31 11:58:30;;;;;;;0.83;0.63;;;;;;;;;;5074966;28;20680;-67
2022/03/31 12:00:57;;;;;;;1.80;0.70;;;;;;;;;;5055921;28;20198;-65
2022/03/31 12:03:32;;;;;;;3.87;0.87;;;;;;;;;;5073246;28;20201;-68
2022/03/31 12:06:01;;;;;;;1.37;0.53;;;;;;;;;;5075524;28;20205;-70
2022/03/31 12:08:29;;;;;;;3.80;0.87;;;;;;;;;;5060502;28;20264;-67
2022/03/31 12:10:57;;;;;;;1.10;0.53;;;;;;;;;;5074277;28;20224;-67
2022/03/31 12:13:26;;;;;;;1.87;0.90;;;;;;;;;;5075531;28;20197;-69
2022/03/31 12:16:07;;;;;;;1.00;0.67;;;;;;;;;;5078558;28;20322;-69
2022/03/31 12:18:35;;;;;;;1.53;0.90;;;;;;;;;;5080406;28;20189;-71
2022/03/31 12:21:04;;;;;;;3.40;0.60;;;;;;;;;;5076886;28;20208;-67
2022/03/31 12:23:35;;;;;;;0.77;0.53;;;;;;;;;;5082057;28;20220;-69
2022/03/31 12:26:24;;;;;;;1.47;0.60;;;;;;;;;;5065505;28;20205;-68
2022/03/31 12:28:51;;;;;;;4.87;0.80;;;;;;;;;;5079495;28;20220;-69
2022/03/31 12:31:22;;;;;;;1.40;0.77;;;;;;;;;;5079247;28;20729;-67
2022/03/31 12:33:51;;;;;;;1.90;0.60;;;;;;;;;;5077862;28;20247;-68
2022/03/31 12:36:29;;;;;;;5.37;0.50;;;;;;;;;;5079913;28;20221;-66
2022/03/31 12:39:03;;;;;;;0.77;0.47;;;;;;;;;;5066390;28;20189;-68
2022/03/31 12:41:39;;;;;;;1.20;0.50;;;;;;;;;;5066530;28;20204;-70
2022/03/31 12:44:21;;;;;;;0.57;0.40;;;;;;;;;;5082206;28;20189;-69
2022/03/31 12:46:53;;;;;;;0.70;0.60;;;;;;;;;;5082473;28;20232;-71
2022/03/31 12:49:25;;;;;;;0.87;0.60;;;;;;;;;;5077286;28;20247;-70
2022/03/31 12:51:59;;;;;;;1.43;0.40;;;;;;;;;;5065055;28;20204;-70
2022/03/31 12:54:34;;;;;;;0.83;0.50;;;;;;;;;;5083527;28;20218;-71
2022/03/31 12:57:01;;;;;;;1.03;0.57;;;;;;;;;;5084972;28;20294;-71
2022/03/31 12:59:33;;;;;;;8.00;1.47;;;;;;;;;;5077158;28;20657;-71
2022/03/31 13:02:08;;;;;;;0.90;0.50;;;;;;;;;;5062715;28;20193;-66
2022/03/31 13:04:41;;;;;;;1.00;0.53;;;;;;;;;;5076679;28;20204;-67
2022/03/31 13:07:15;;;;;;;0.40;0.37;;;;;;;;;;5077761;28;20213;-67
2022/03/31 13:09:45;;;;;;;3.33;0.60;;;;;;;;;;5049859;28;20209;-66
2022/03/31 13:12:14;;;;;;;1.20;0.40;;;;;;;;;;5062415;28;20193;-65
2022/03/31 13:14:46;;;;;;;3.70;0.30;;;;;;;;;;5080666;28;20217;-66
2022/03/31 13:17:16;;;;;;;0.50;0.30;;;;;;;;;;5076957;28;20237;-72
2022/03/31 13:19:47;;;;;;;0.33;0.30;;;;;;;;;;5061039;28;20205;-71
2022/03/31 13:22:22;;;;;;;1.70;0.40;;;;;;;;;;5049782;28;20209;-68
2022/03/31 13:24:52;;;;;;;0.43;0.30;;;;;;;;;;5082601;28;20616;-69
2022/03/31 13:27:25;;;;;;;1.13;0.50;;;;;;;;;;5078370;28;20196;-68
2022/03/31 13:29:56;;;;;;;0.30;0.30;;;;;;;;;;5082303;28;20209;-68
2022/03/31 13:32:26;;;;;;;2.47;0.33;;;;;;;;;;5080996;28;20216;-66
2022/03/31 13:34:57;;;;;;;0.97;0.53;;;;;;;;;;5078896;28;20212;-67
2022/03/31 13:37:27;;;;;;;0.53;0.30;;;;;;;;;;5064390;28;20223;-65
2022/03/31 13:39:54;;;;;;;4.93;0.40;;;;;;;;;;5081499;28;20193;-66
2022/03/31 13:42:21;;;;;;;1.10;0.43;;;;;;;;;;5076965;28;20675;-73
2022/03/31 13:44:49;;;;;;;0.40;0.23;;;;;;;;;;5083444;28;20206;-73
2022/03/31 13:47:21;;;;;;;0.50;0.30;;;;;;;;;;5073762;28;20246;-65
2022/03/31 13:49:57;;;;;;;2.00;0.40;;;;;;;;;;5082331;28;20197;-66
2022/03/31 13:52:27;;;;;;;2.50;0.40;;;;;;;;;;5078190;28;20202;-66
2022/03/31 13:54:54;;;;;;;0.50;0.40;;;;;;;;;;5079542;28;20624;-68
2022/03/31 14:02:55;;;;;;;0.33;0.33;;;;;;;;;;5079122;28;20629;-69
2022/03/31 14:05:23;;;;;;;1.37;0.40;;;;;;;;;;5059935;28;20308;-68
2022/03/31 14:07:50;;;;;;;0.50;0.50;;;;;;;;;;5064444;28;20201;-67
2022/03/31 14:10:18;;;;;;;0.43;0.40;;;;;;;;;;5078329;28;20189;-68
2022/03/31 14:12:48;;;;;;;0.83;0.60;;;;;;;;;;5080518;28;20201;-67
2022/03/31 14:15:19;;;;;;;0.87;0.43;;;;;;;;;;5080605;28;20275;-66
2022/03/31 14:17:54;;;;;;;1.13;0.40;;;;;;;;;;5079133;28;20185;-68
2022/03/31 14:20:24;;;;;;;3.70;0.60;;;;;;;;;;5081046;28;20209;-63
2022/03/31 14:22:54;;;;;;;1.50;0.30;;;;;;;;;;5066283;28;20200;-64
2022/03/31 14:25:25;;;;;;;0.80;0.53;;;;;;;;;;5077597;28;20686;-66
2022/03/31 14:27:52;;;;;;;0.70;0.30;;;;;;;;;;5080299;28;20189;-68
2022/03/31 14:30:19;;;;;;;1.13;0.50;;;;;;;;;;5080002;28;20237;-64
2022/03/31 14:32:47;;;;;;;1.87;0.50;;;;;;;;;;5077005;28;20270;-65
2022/03/31 14:35:14;;;;;;;2.27;0.50;;;;;;;;;;5072706;28;20262;-66
2022/03/31 14:37:41;;;;;;;0.30;0.30;;;;;;;;;;5076587;28;20218;-67
2022/03/31 14:40:09;;;;;;;8.60;0.50;;;;;;;;;;5079704;28;20628;-69
2022/03/31 14:42:37;;;;;;;0.30;0.30;;;;;;;;;;5078344;28;20203;-68
2022/03/31 14:45:05;;;;;;;2.03;0.33;;;;;;;;;;5075111;28;20197;-69
2022/03/31 14:47:38;;;;;;;0.50;0.27;;;;;;;;;;5069529;28;20190;-70
2022/03/31 14:50:10;;;;;;;0.50;0.30;;;;;;;;;;5071262;28;20569;-69
2022/03/31 14:52:37;;;;;;;1.90;0.30;;;;;;;;;;5076274;28;20201;-69
2022/03/31 14:55:05;;;;;;;0.30;0.30;;;;;;;;;;5070160;28;20233;-66
2022/03/31 14:57:37;;;;;;;1.13;0.47;;;;;;;;;;5076703;28;20213;-66
2022/03/31 15:00:09;;;;;;;0.90;0.40;;;;;;;;;;5071030;28;20210;-65
2022/03/31 15:02:42;;;;;;;0.90;0.30;;;;;;;;;;5081593;28;20213;-64
2022/03/31 15:05:17;;;;;;;0.30;0.30;;;;;;;;;;5077261;28;20425;-64
2022/03/31 15:07:48;;;;;;;0.80;0.60;;;;;;;;;;5078398;28;20208;-65
2022/03/31 15:15:54;;;;;;;0.43;0.40;;;;;;;;;;5057212;28;20213;-67
2022/03/31 15:18:29;;;;;;;1.60;0.37;;;;;;;;;;5078990;28;20271;-68
2022/03/31 15:20:59;;;;;;;0.60;0.27;;;;;;;;;;5078945;28;20202;-70
2022/03/31 15:23:29;;;;;;;0.20;0.20;;;;;;;;;;5071390;28;20603;-71
2022/03/31 15:25:57;;;;;;;1.47;0.30;;;;;;;;;;5071694;28;20211;-70